Time;durP1;ratioP1;P1;durP2;ratioP2;P2;SDS_P1;SDS_P2;PMS_P1;PMS_P2;Temp;Humidity;BMP_temperature;BMP_pressure;BME280_temperature;BME280_humidity;BME280_pressure;Samples;Min_cycle;Max_cycle;Signal;HPM_P1;HPM_P2
2023/07/29 00:01:14;;;;;;;;;;;;;;;31.62;31.46;97589.94;5116038;28;19920;-90
2023/07/29 00:03:40;;;;;;;;;;;;;;;31.57;31.64;97590.66;5116085;28;19916;-89
2023/07/29 00:06:06;;;;;;;;;;;;;;;31.54;31.84;97588.03;5116014;28;20438;-89
2023/07/29 00:08:33;;;;;;;;;;;;;;;31.26;31.86;97587.63;5116018;28;19916;-89
2023/07/29 00:10:59;;;;;;;;;;;;;;;31.26;32.09;97588.41;5115465;28;20404;-89
2023/07/29 00:13:25;;;;;;;;;;;;;;;31.25;31.88;97591.75;5116357;28;19916;-89
2023/07/29 00:15:52;;;;;;;;;;;;;;;31.45;31.66;97593.84;5115890;28;19916;-89
2023/07/29 00:18:18;;;;;;;;;;;;;;;31.55;31.42;97598.88;5115869;28;19916;-89
2023/07/29 00:20:45;;;;;;;;;;;;;;;31.58;31.37;97597.13;5133575;27;20010;-90
2023/07/29 00:23:14;;;;;;;;;;;;;;;31.38;31.17;97598.63;5136234;27;20384;-89
2023/07/29 00:25:40;;;;;;;;;;;;;;;31.28;31.66;97582.22;5135930;27;19915;-89
2023/07/29 00:28:06;;;;;;;;;;;;;;;30.99;32.10;97580.31;5135583;27;19915;-89
2023/07/29 00:30:32;;;;;;;;;;;;;;;31.00;32.93;97592.41;5115689;27;19916;-90
2023/07/29 00:32:58;;;;;;;;;;;;;;;30.84;32.75;97587.22;5115508;28;19922;-90
2023/07/29 00:35:24;;;;;;;;;;;;;;;30.94;32.38;97592.34;5115485;28;19920;-89
2023/07/29 00:37:50;;;;;;;;;;;;;;;31.06;32.28;97590.44;5115816;28;19923;-90
2023/07/29 00:40:20;;;;;;;;;;;;;;;31.06;32.37;97587.59;5114940;28;19920;-89
2023/07/29 00:42:46;;;;;;;;;;;;;;;31.13;32.33;97590.81;5115387;28;20017;-90
2023/07/29 00:45:13;;;;;;;;;;;;;;;31.17;31.97;97584.91;5114814;27;19942;-89
2023/07/29 00:47:39;;;;;;;;;;;;;;;31.19;32.03;97583.16;5135701;27;19916;-89
2023/07/29 00:50:06;;;;;;;;;;;;;;;31.22;32.28;97585.00;5135726;27;19923;-89
2023/07/29 00:52:32;;;;;;;;;;;;;;;31.19;32.57;97588.03;5128254;27;20041;-89
2023/07/29 00:54:58;;;;;;;;;;;;;;;31.23;32.44;97582.94;5115043;28;19915;-89
2023/07/29 00:57:25;;;;;;;;;;;;;;;31.33;32.08;97590.84;5115307;28;19916;-90
2023/07/29 00:59:51;;;;;;;;;;;;;;;31.30;32.52;97591.03;5114810;28;20006;-90
2023/07/29 01:02:17;;;;;;;;;;;;;;;31.28;32.49;97587.91;5115508;27;19916;-89
2023/07/29 01:04:43;;;;;;;;;;;;;;;31.20;32.00;97586.78;5114862;28;19919;-90
2023/07/29 01:07:16;;;;;;;;;;;;;;;31.04;32.73;97584.50;5114625;28;20292;-90
2023/07/29 01:09:48;;;;;;;;;;;;;;;31.12;32.29;97585.63;5114529;28;19924;-90
2023/07/29 01:12:20;;;;;;;;;;;;;;;31.31;32.61;97592.59;5114744;28;19919;-90
2023/07/29 01:14:51;;;;;;;;;;;;;;;31.19;32.53;97583.16;5114714;28;19916;-90
2023/07/29 01:17:22;;;;;;;;;;;;;;;31.22;32.51;97584.22;5113289;28;20020;-90
2023/07/29 01:20:05;;;;;;;;;;;;;;;31.18;32.46;97587.25;5114994;28;19916;-90
2023/07/29 01:22:35;;;;;;;;;;;;;;;31.17;32.36;97584.91;5114316;28;19919;-90
2023/07/29 01:25:01;;;;;;;;;;;;;;;31.15;33.04;97593.94;5114677;28;19922;-90
2023/07/29 01:27:27;;;;;;;;;;;;;;;31.24;32.29;97585.28;5114548;28;19923;-89
2023/07/29 01:29:54;;;;;;;;;;;;;;;31.25;32.34;97595.34;5114357;28;20292;-90
2023/07/29 01:32:26;;;;;;;;;;;;;;;31.19;32.38;97588.03;5114442;28;19915;-90
2023/07/29 01:35:12;;;;;;;;;;;;;;;31.16;32.54;97595.47;5114349;28;19919;-90
2023/07/29 01:37:39;;;;;;;;;;;;;;;31.24;32.12;97596.66;5106155;28;19915;-90
2023/07/29 01:40:07;;;;;;;;;;;;;;;31.26;32.30;97593.31;5114066;28;20412;-90
2023/07/29 01:42:33;;;;;;;;;;;;;;;31.26;32.25;97594.09;5114307;28;19916;-90
2023/07/29 01:44:59;;;;;;;;;;;;;;;31.19;32.33;97593.72;5114338;28;20279;-90
2023/07/29 01:47:25;;;;;;;;;;;;;;;31.03;32.24;97595.03;5134167;27;20372;-90
2023/07/29 01:49:51;;;;;;;;;;;;;;;31.05;32.34;97598.16;5134751;27;19993;-90
2023/07/29 01:52:18;;;;;;;;;;;;;;;31.05;32.20;97603.84;5134381;27;19916;-90
2023/07/29 01:54:44;;;;;;;;;;;;;;;31.00;32.42;97601.69;5120375;27;20376;-89
2023/07/29 01:57:09;;;;;;;;;;;;;;;31.03;32.29;97597.88;5114057;28;19924;-90
2023/07/29 01:59:35;;;;;;;;;;;;;;;31.02;32.37;97601.19;5113976;28;19915;-89
2023/07/29 02:02:02;;;;;;;;;;;;;;;31.11;33.08;97598.25;5114073;28;19920;-90
2023/07/29 02:04:28;;;;;;;;;;;;;;;31.16;32.78;97606.03;5114069;28;19916;-89
2023/07/29 02:06:54;;;;;;;;;;;;;;;31.33;32.39;97601.38;5113774;28;19920;-90
2023/07/29 02:09:21;;;;;;;;;;;;;;;31.51;32.13;97597.53;5113808;28;19950;-90
2023/07/29 02:11:47;;;;;;;;;;;;;;;31.32;32.86;97591.34;5114517;28;19916;-90
2023/07/29 02:14:13;;;;;;;;;;;;;;;31.28;32.32;97587.91;5112593;28;20010;-90
2023/07/29 02:16:39;;;;;;;;;;;;;;;31.15;32.71;97596.00;5114064;28;19923;-90
2023/07/29 02:19:05;;;;;;;;;;;;;;;31.33;32.67;97593.66;5113620;28;20463;-90
2023/07/29 02:21:31;;;;;;;;;;;;;;;31.44;32.49;97593.06;5113598;28;19916;-90
2023/07/29 02:23:57;;;;;;;;;;;;;;;31.42;32.84;97596.41;5113844;28;19915;-90
2023/07/29 02:26:23;;;;;;;;;;;;;;;31.60;32.82;97589.66;5113771;28;20445;-90
2023/07/29 02:28:49;;;;;;;;;;;;;;;31.79;32.24;97590.13;5114232;28;20002;-90
2023/07/29 02:31:16;;;;;;;;;;;;;;;31.76;32.48;97596.81;5113785;28;19915;-90
2023/07/29 02:33:43;;;;;;;;;;;;;;;31.82;32.45;97595.59;5112410;28;19916;-90
2023/07/29 02:36:10;;;;;;;;;;;;;;;31.67;32.90;97597.72;5112233;28;19916;-90
2023/07/29 02:38:36;;;;;;;;;;;;;;;31.65;32.99;97594.59;5113528;28;19915;-90
2023/07/29 02:41:02;;;;;;;;;;;;;;;31.94;32.60;97594.44;5113558;28;20372;-90
2023/07/29 02:43:28;;;;;;;;;;;;;;;31.99;32.64;97598.66;5113809;28;19916;-90
2023/07/29 02:45:54;;;;;;;;;;;;;;;32.21;32.48;97592.44;5113953;28;19923;-90
2023/07/29 02:48:20;;;;;;;;;;;;;;;32.32;31.68;97595.38;5128479;28;19919;-90
2023/07/29 02:50:46;;;;;;;;;;;;;;;32.12;32.08;97598.25;5133849;27;19922;-90
2023/07/29 02:53:12;;;;;;;;;;;;;;;31.97;32.44;97596.31;5134054;27;20016;-90
2023/07/29 02:55:41;;;;;;;;;;;;;;;32.20;32.04;97596.56;5134029;27;20392;-90
2023/07/29 02:58:07;;;;;;;;;;;;;;;32.00;32.24;97601.00;5132824;27;20339;-90
2023/07/29 03:00:33;;;;;;;;;;;;;;;32.12;32.35;97595.41;5133883;27;20010;-90
2023/07/29 03:02:59;;;;;;;;;;;;;;;32.26;32.24;97586.78;5132907;27;19922;-90
2023/07/29 03:05:28;;;;;;;;;;;;;;;32.35;32.00;97585.88;5134075;27;20332;-90
2023/07/29 03:07:54;;;;;;;;;;;;;;;32.20;32.24;97594.50;5135985;27;19957;-90
2023/07/29 03:10:20;;;;;;;;;;;;;;;32.18;32.65;97596.28;5137333;27;19931;-90
2023/07/29 03:12:46;;;;;;;;;;;;;;;32.05;32.51;97605.97;5134039;27;20535;-90
2023/07/29 03:15:12;;;;;;;;;;;;;;;32.05;32.94;97605.97;5122214;27;20016;-90
2023/07/29 03:17:38;;;;;;;;;;;;;;;32.18;32.37;97604.81;5126858;27;19915;-90
2023/07/29 03:20:04;;;;;;;;;;;;;;;32.25;32.64;97607.19;5127941;27;20299;-90
2023/07/29 03:22:30;;;;;;;;;;;;;;;32.23;32.58;97610.53;5117080;28;20002;-90
2023/07/29 03:24:56;;;;;;;;;;;;;;;32.11;32.81;97617.38;5116888;28;20015;-90
2023/07/29 03:27:22;;;;;;;;;;;;;;;32.15;32.99;97626.47;5116780;28;20391;-90
2023/07/29 03:29:48;;;;;;;;;;;;;;;32.31;33.04;97625.06;5116697;28;20033;-90
2023/07/29 03:32:14;;;;;;;;;;;;;;;32.48;32.77;97620.34;5116356;28;19926;-90
2023/07/29 03:34:41;;;;;;;;;;;;;;;32.63;32.54;97615.31;5116912;28;19919;-90
2023/07/29 03:37:07;;;;;;;;;;;;;;;32.38;32.92;97622.56;5117541;27;19943;-90
2023/07/29 03:39:33;;;;;;;;;;;;;;;31.97;33.29;97627.53;5116855;27;19924;-90
2023/07/29 03:41:59;;;;;;;;;;;;;;;31.78;33.96;97629.13;5116508;28;20423;-90
2023/07/29 03:44:25;;;;;;;;;;;;;;;32.07;33.79;97633.84;5116470;28;19911;-90
2023/07/29 03:46:51;;;;;;;;;;;;;;;32.41;32.86;97623.63;5116265;28;19973;-90
2023/07/29 03:49:17;;;;;;;;;;;;;;;32.54;32.61;97624.03;5123276;27;19915;-90
2023/07/29 03:51:44;;;;;;;;;;;;;;;32.19;33.36;97629.84;5137012;27;20379;-90
2023/07/29 03:54:10;;;;;;;;;;;;;;;32.31;33.15;97625.06;5136304;27;19939;-90
2023/07/29 03:56:36;;;;;;;;;;;;;;;32.54;32.90;97626.88;5135490;27;20303;-90
2023/07/29 03:59:03;;;;;;;;;;;;;;;32.74;32.80;97629.66;5136739;27;19957;-90
2023/07/29 04:01:29;;;;;;;;;;;;;;;32.63;32.85;97635.22;5136369;27;19915;-90
2023/07/29 04:03:55;;;;;;;;;;;;;;;32.14;33.49;97638.34;5136633;27;20312;-90
2023/07/29 04:06:22;;;;;;;;;;;;;;;31.81;34.11;97633.78;5136548;27;19998;-90
2023/07/29 04:08:48;;;;;;;;;;;;;;;32.03;34.05;97631.25;5136592;27;20449;-91
2023/07/29 04:11:15;;;;;;;;;;;;;;;32.40;33.05;97627.75;5135539;27;19923;-90
2023/07/29 04:13:41;;;;;;;;;;;;;;;32.69;33.00;97622.63;5135233;27;19915;-90
2023/07/29 04:16:07;;;;;;;;;;;;;;;32.99;32.63;97630.88;5136091;27;19968;-90
2023/07/29 04:18:33;;;;;;;;;;;;;;;33.11;32.25;97635.38;5136281;27;19922;-91
2023/07/29 04:20:59;;;;;;;;;;;;;;;32.79;33.43;97636.66;5136352;27;19916;-90
2023/07/29 04:23:25;;;;;;;;;;;;;;;32.59;33.60;97635.47;5136390;27;19922;-90
2023/07/29 04:25:51;;;;;;;;;;;;;;;32.65;33.75;97632.69;5136333;27;20376;-90
2023/07/29 04:28:17;;;;;;;;;;;;;;;32.92;33.77;97637.81;5117480;27;19916;-90
2023/07/29 04:30:43;;;;;;;;;;;;;;;32.90;33.84;97639.59;5115326;28;19916;-90
2023/07/29 04:33:09;;;;;;;;;;;;;;;32.90;33.81;97646.06;5115513;28;20419;-90
2023/07/29 04:35:35;;;;;;;;;;;;;;;33.06;33.23;97647.50;5115518;28;19915;-90
2023/07/29 04:38:01;;;;;;;;;;;;;;;33.23;33.57;97642.72;5115364;28;19920;-90
2023/07/29 04:40:27;;;;;;;;;;;;;;;33.42;33.38;97649.56;5115161;28;19989;-91
2023/07/29 04:42:54;;;;;;;;;;;;;;;33.47;33.00;97650.88;5115326;28;19916;-90
2023/07/29 04:45:20;;;;;;;;;;;;;;;33.13;33.82;97647.03;5133680;27;20397;-90
2023/07/29 04:47:46;;;;;;;;;;;;;;;33.08;34.00;97648.56;5135688;27;19954;-90
2023/07/29 04:50:12;;;;;;;;;;;;;;;33.01;33.84;97649.03;5121264;27;19949;-91
2023/07/29 04:52:38;;;;;;;;;;;;;;;32.92;34.50;97646.34;5115225;28;19911;-91
2023/07/29 04:55:04;;;;;;;;;;;;;;;33.12;33.94;97649.09;5113799;28;19919;-90
2023/07/29 04:57:30;;;;;;;;;;;;;;;33.29;34.60;97644.31;5115435;28;19911;-91
2023/07/29 04:59:56;;;;;;;;;;;;;;;33.34;34.56;97652.09;5114609;28;20359;-91
2023/07/29 05:02:22;;;;;;;;;;;;;;;33.46;34.54;97650.09;5115525;27;20014;-91
2023/07/29 05:04:48;;;;;;;;;;;;;;;33.72;35.15;97656.50;5114919;28;19915;-91
2023/07/29 05:07:14;;;;;;;;;;;;;;;34.22;35.50;97659.53;5114742;28;19962;-91
2023/07/29 05:09:40;;;;;;;;;;;;;;;34.30;34.15;97657.78;5114779;28;19924;-91
2023/07/29 05:12:06;;;;;;;;;;;;;;;34.32;34.71;97669.44;5114881;28;19922;-91
2023/07/29 05:14:32;;;;;;;;;;;;;;;34.42;36.25;97664.28;5123065;27;19923;-92
2023/07/29 05:16:58;;;;;;;;;;;;;;;34.67;35.16;97675.50;5135263;27;19923;-92
2023/07/29 05:19:24;;;;;;;;;;;;;;;34.59;35.52;97677.28;5134166;27;20273;-92
2023/07/29 05:21:50;;;;;;;;;;;;;;;34.68;34.88;97668.47;5135174;27;19916;-92
2023/07/29 05:24:16;;;;;;;;;;;;;;;34.61;35.06;97668.22;5135181;27;19915;-92
2023/07/29 05:26:42;;;;;;;;;;;;;;;34.67;35.82;97671.84;5133817;27;20277;-93
2023/07/29 05:29:08;;;;;;;;;;;;;;;34.83;36.15;97665.38;5133511;27;19922;-93
2023/07/29 05:31:34;;;;;;;;;;;;;;;34.97;36.66;97666.41;5134556;27;20391;-92
2023/07/29 05:34:00;;;;;;;;;;;;;;;35.24;36.30;97663.56;5116511;27;19924;-92
2023/07/29 05:36:26;;;;;;;;;;;;;;;35.34;34.91;97662.00;5131366;27;19919;-93
2023/07/29 05:38:52;;;;;;;;;;;;;;;35.53;36.00;97662.25;5114240;28;19970;-93
2023/07/29 05:41:18;;;;;;;;;;;;;;;35.82;36.32;97667.38;5114214;28;19916;-92
2023/07/29 05:43:45;;;;;;;;;;;;;;;36.02;35.63;97664.22;5114394;28;19957;-92
2023/07/29 05:46:11;;;;;;;;;;;;;;;36.05;35.16;97660.31;5114243;28;19916;-92
2023/07/29 05:48:37;;;;;;;;;;;;;;;36.17;33.30;97666.75;5114204;28;19922;-93
2023/07/29 05:51:05;;;;;;;;;;;;;;;36.04;33.78;97661.59;5114240;28;19916;-92
2023/07/29 05:53:31;;;;;;;;;;;;;;;36.18;33.48;97676.84;5134370;27;20322;-92
2023/07/29 05:55:57;;;;;;;;;;;;;;;36.31;34.52;97668.50;5134833;27;19915;-92
2023/07/29 05:58:23;;;;;;;;;;;;;;;36.54;33.58;97669.94;5134522;27;20451;-92
2023/07/29 06:00:49;;;;;;;;;;;;;;;36.89;33.64;97679.84;5134450;27;19922;-92
2023/07/29 06:03:15;;;;;;;;;;;;;;;37.30;32.57;97680.53;5134569;27;20368;-93
2023/07/29 06:05:41;;;;;;;;;;;;;;;37.54;31.39;97676.97;5134516;27;19964;-92
2023/07/29 06:08:08;;;;;;;;;;;;;;;37.66;30.09;97676.31;5134059;27;19922;-92
2023/07/29 06:10:34;;;;;;;;;;;;;;;37.82;30.09;97688.91;5134219;28;19930;-92
2023/07/29 06:13:00;;;;;;;;;;;;;;;37.82;29.26;97683.16;5134070;27;19915;-92
2023/07/29 06:15:26;;;;;;;;;;;;;;;37.98;28.82;97674.41;5134597;27;20002;-92
2023/07/29 06:17:52;;;;;;;;;;;;;;;37.96;28.05;97671.31;5134419;27;19958;-92
2023/07/29 06:20:18;;;;;;;;;;;;;;;37.91;27.88;97682.81;5133173;28;19920;-91
2023/07/29 06:22:44;;;;;;;;;;;;;;;37.71;28.28;97671.84;5114899;27;19938;-92
2023/07/29 06:25:10;;;;;;;;;;;;;;;37.74;27.96;97676.50;5114422;28;20361;-91
2023/07/29 06:27:36;;;;;;;;;;;;;;;37.80;28.59;97672.25;5134282;27;19968;-92
2023/07/29 06:30:02;;;;;;;;;;;;;;;37.93;28.55;97666.63;5132986;27;19916;-92
2023/07/29 06:32:29;;;;;;;;;;;;;;;38.18;27.56;97667.38;5134373;27;19976;-92
2023/07/29 06:34:55;;;;;;;;;;;;;;;38.31;28.62;97673.22;5134305;27;20392;-91
2023/07/29 06:37:21;;;;;;;;;;;;;;;38.49;28.41;97677.41;5124940;27;20007;-92
2023/07/29 06:39:47;;;;;;;;;;;;;;;38.45;28.38;97683.47;5113960;28;19959;-92
2023/07/29 06:42:13;;;;;;;;;;;;;;;38.34;27.72;97680.75;5115068;27;19922;-92
2023/07/29 06:44:40;;;;;;;;;;;;;;;38.21;27.83;97677.00;5117679;28;19969;-91
2023/07/29 06:47:06;;;;;;;;;;;;;;;38.14;28.54;97680.47;5117654;28;19921;-91
2023/07/29 06:49:32;;;;;;;;;;;;;;;38.23;28.43;97677.97;5117808;28;20341;-92
2023/07/29 06:51:58;;;;;;;;;;;;;;;38.29;28.37;97675.06;5133044;27;19990;-89
2023/07/29 06:54:25;;;;;;;;;;;;;;;38.29;27.54;97673.00;5136066;27;20057;-89
2023/07/29 06:56:52;;;;;;;;;;;;;;;37.63;28.79;97676.59;5137794;27;19915;-88
2023/07/29 06:59:18;;;;;;;;;;;;;;;37.27;27.41;97681.63;5135828;27;20379;-88
2023/07/29 07:01:44;;;;;;;;;;;;;;;37.10;27.87;97689.59;5117454;28;20007;-87
2023/07/29 07:04:10;;;;;;;;;;;;;;;37.30;29.02;97687.06;5117279;28;19920;-92
2023/07/29 07:06:36;;;;;;;;;;;;;;;37.20;30.69;97682.22;5117195;28;20402;-89
2023/07/29 07:09:02;;;;;;;;;;;;;;;35.82;35.97;97692.31;5117264;28;19977;-88
2023/07/29 07:11:28;;;;;;;;;;;;;;;35.98;31.92;97685.78;5116787;28;20455;-88
2023/07/29 07:13:54;;;;;;;;;;;;;;;36.31;30.27;97687.72;5117213;28;20295;-88
2023/07/29 07:16:20;;;;;;;;;;;;;;;36.11;33.68;97683.13;5117630;27;19916;-89
2023/07/29 07:18:46;;;;;;;;;;;;;;;36.86;30.52;97690.25;5117004;28;19920;-90
2023/07/29 07:21:12;;;;;;;;;;;;;;;36.51;34.55;97684.50;5116752;28;20446;-88
2023/07/29 07:23:38;;;;;;;;;;;;;;;37.03;30.85;97685.22;5115627;28;20011;-89
2023/07/29 07:26:05;;;;;;;;;;;;;;;36.55;34.82;97682.91;5116696;28;19911;-89
2023/07/29 07:28:31;;;;;;;;;;;;;;;36.23;28.87;97676.06;5116768;28;19938;-88
2023/07/29 07:30:57;;;;;;;;;;;;;;;36.08;31.35;97680.56;5115612;28;20364;-88
2023/07/29 07:33:23;;;;;;;;;;;;;;;35.98;30.08;97678.00;5117846;27;19927;-88
2023/07/29 07:35:49;;;;;;;;;;;;;;;36.07;33.98;97676.91;5137296;27;19916;-89
2023/07/29 07:38:15;;;;;;;;;;;;;;;35.79;33.74;97670.50;5122320;27;19918;-88
2023/07/29 07:40:41;;;;;;;;;;;;;;;36.22;29.13;97679.47;5116693;28;19920;-87
2023/07/29 07:43:07;;;;;;;;;;;;;;;36.41;31.64;97680.41;5116536;28;19920;-88
2023/07/29 07:45:33;;;;;;;;;;;;;;;36.41;30.94;97681.16;5116474;28;19916;-89
2023/07/29 07:47:59;;;;;;;;;;;;;;;36.72;30.15;97682.81;5116538;28;19919;-89
2023/07/29 07:50:25;;;;;;;;;;;;;;;36.65;29.68;97680.53;5116947;27;20390;-89
2023/07/29 07:52:51;;;;;;;;;;;;;;;37.06;29.59;97678.41;5115941;28;19916;-89
2023/07/29 07:55:17;;;;;;;;;;;;;;;37.10;29.20;97675.28;5116132;28;19922;-89
2023/07/29 07:57:43;;;;;;;;;;;;;;;37.24;29.16;97676.97;5116119;28;20452;-87
2023/07/29 08:00:09;;;;;;;;;;;;;;;37.46;29.73;97665.31;5116137;28;19915;-89
2023/07/29 08:02:35;;;;;;;;;;;;;;;37.44;31.67;97670.81;5116157;28;20370;-89
2023/07/29 08:05:01;;;;;;;;;;;;;;;37.09;30.38;97673.69;5116006;28;19915;-90
2023/07/29 08:07:27;;;;;;;;;;;;;;;36.55;37.00;97671.47;5118587;27;19915;-88
2023/07/29 08:09:53;;;;;;;;;;;;;;;36.88;30.03;97658.22;5136226;27;19924;-88
2023/07/29 08:12:19;;;;;;;;;;;;;;;36.78;28.91;97663.53;5136567;27;19915;-88
2023/07/29 08:14:45;;;;;;;;;;;;;;;35.84;33.71;97666.84;5136525;27;20392;-89
2023/07/29 08:17:11;;;;;;;;;;;;;;;36.71;29.32;97659.13;5136336;27;19919;-89
2023/07/29 08:19:37;;;;;;;;;;;;;;;37.04;28.72;97663.09;5136258;27;20004;-88
2023/07/29 08:22:03;;;;;;;;;;;;;;;36.43;30.25;97672.06;5136001;27;20376;-88
2023/07/29 08:24:30;;;;;;;;;;;;;;;36.69;29.79;97663.84;5132753;27;19915;-90
2023/07/29 08:26:56;;;;;;;;;;;;;;;36.74;29.82;97654.44;5115728;28;19920;-90
2023/07/29 08:29:22;;;;;;;;;;;;;;;36.98;28.49;97674.59;5115645;28;19945;-88
2023/07/29 08:31:48;;;;;;;;;;;;;;;36.93;31.89;97660.31;5115645;28;19915;-89
2023/07/29 08:34:14;;;;;;;;;;;;;;;36.99;29.49;97655.34;5115611;28;19922;-89
2023/07/29 08:36:40;;;;;;;;;;;;;;;36.78;29.78;97668.47;5116988;27;19920;-89
2023/07/29 08:39:06;;;;;;;;;;;;;;;36.80;29.62;97658.06;5127202;27;19923;-89
2023/07/29 08:41:37;;;;;;;;;;;;;;;37.09;30.54;97656.53;5115850;28;19927;-90
2023/07/29 08:44:09;;;;;;;;;;;;;;;37.37;31.30;97654.22;5115512;28;19916;-90
2023/07/29 08:46:35;;;;;;;;;;;;;;;37.64;30.11;97641.69;5115312;28;19919;-90
2023/07/29 08:49:02;;;;;;;;;;;;;;;37.56;32.61;97643.59;5115224;28;19916;-90
2023/07/29 08:51:29;;;;;;;;;;;;;;;37.61;30.69;97647.72;5115025;28;19935;-89
2023/07/29 08:53:55;;;;;;;;;;;;;;;37.63;29.79;97639.34;5134340;27;20321;-89
2023/07/29 08:56:21;;;;;;;;;;;;;;;37.64;29.81;97646.63;5115030;28;20384;-89
2023/07/29 08:58:48;;;;;;;;;;;;;;;37.42;29.49;97635.41;5120558;27;20368;-88
2023/07/29 09:01:14;;;;;;;;;;;;;;;37.64;31.01;97635.19;5135468;27;19999;-90
2023/07/29 09:03:41;;;;;;;;;;;;;;;37.82;29.95;97638.13;5135460;27;20384;-90
2023/07/29 09:06:07;;;;;;;;;;;;;;;37.94;29.10;97633.00;5134547;27;20010;-89
2023/07/29 09:08:34;;;;;;;;;;;;;;;37.94;28.42;97630.94;5134028;27;19915;-89
2023/07/29 09:11:00;;;;;;;;;;;;;;;37.86;29.59;97634.94;5135252;27;19930;-89
2023/07/29 09:13:26;;;;;;;;;;;;;;;37.99;31.01;97630.09;5135696;27;19922;-90
2023/07/29 09:15:56;;;;;;;;;;;;;;;38.00;29.51;97625.88;5134731;27;19915;-88
2023/07/29 09:18:23;;;;;;;;;;;;;;;37.91;30.84;97625.50;5135467;27;20010;-90
2023/07/29 09:20:49;;;;;;;;;;;;;;;38.43;29.87;97631.59;5134870;27;19915;-89
2023/07/29 09:23:15;;;;;;;;;;;;;;;38.91;30.93;97630.59;5133748;27;19923;-90
2023/07/29 09:25:41;;;;;;;;;;;;;;;39.36;27.46;97639.22;5114529;28;20073;-88
2023/07/29 09:28:09;;;;;;;;;;;;;;;39.20;27.81;97631.69;5114776;28;19915;-88
2023/07/29 09:30:35;;;;;;;;;;;;;;;39.19;30.59;97630.91;5121924;27;19923;-90
2023/07/29 09:33:01;;;;;;;;;;;;;;;39.49;29.30;97627.72;5134106;27;20368;-90
2023/07/29 09:35:28;;;;;;;;;;;;;;;39.59;26.72;97637.50;5133644;27;20354;-90
2023/07/29 09:37:54;;;;;;;;;;;;;;;39.47;28.15;97635.38;5133642;27;19923;-90
2023/07/29 09:40:20;;;;;;;;;;;;;;;39.22;28.42;97634.78;5135195;27;19924;-90
2023/07/29 09:42:50;;;;;;;;;;;;;;;39.20;27.89;97634.56;5134862;27;19922;-90
2023/07/29 09:45:23;;;;;;;;;;;;;;;38.88;26.39;97628.03;5134822;27;19934;-89
2023/07/29 09:47:50;;;;;;;;;;;;;;;38.63;28.12;97622.41;5133511;27;19920;-89
2023/07/29 09:50:16;;;;;;;;;;;;;;;38.62;27.72;97622.94;5133765;27;19917;-89
2023/07/29 09:52:43;;;;;;;;;;;;;;;38.42;29.04;97615.69;5125653;27;19920;-89
2023/07/29 09:55:10;;;;;;;;;;;;;;;38.48;29.37;97621.34;5114188;28;19923;-90
2023/07/29 09:57:38;;;;;;;;;;;;;;;38.46;29.39;97618.25;5114033;28;19958;-89
2023/07/29 10:00:10;;;;;;;;;;;;;;;38.37;28.82;97618.66;5113921;28;19961;-89
2023/07/29 10:02:38;;;;;;;;;;;;;;;38.24;30.12;97630.78;5114241;28;19963;-90
2023/07/29 10:05:05;;;;;;;;;;;;;;;38.40;29.62;97635.53;5113984;28;19939;-90
2023/07/29 10:07:31;;;;;;;;;;;;;;;38.61;29.54;97633.66;5114442;28;19915;-89
2023/07/29 10:09:57;;;;;;;;;;;;;;;38.82;29.81;97638.81;5113684;28;19924;-90
2023/07/29 10:12:24;;;;;;;;;;;;;;;38.91;30.41;97627.72;5114893;28;19924;-90
2023/07/29 10:14:50;;;;;;;;;;;;;;;39.01;30.72;97637.47;5114198;28;19912;-89
2023/07/29 10:17:16;;;;;;;;;;;;;;;39.14;30.04;97645.34;5116882;28;19916;-89
2023/07/29 10:19:44;;;;;;;;;;;;;;;39.02;30.26;97641.13;5117920;28;20385;-89
2023/07/29 10:22:11;;;;;;;;;;;;;;;38.72;29.80;97644.97;5118157;28;19915;-89
2023/07/29 10:24:41;;;;;;;;;;;;;;;38.82;31.70;97642.47;5130751;27;20452;-89
2023/07/29 10:27:11;;;;;;;;;;;;;;;38.66;32.27;97638.53;5138671;27;19968;-88
2023/07/29 10:29:38;;;;;;;;;;;;;;;38.87;31.87;97640.84;5138396;27;20014;-90
2023/07/29 10:32:05;;;;;;;;;;;;;;;39.13;32.26;97646.66;5137543;27;19916;-89
2023/07/29 10:34:34;;;;;;;;;;;;;;;39.21;31.00;97645.50;5138238;27;19922;-89
2023/07/29 10:37:00;;;;;;;;;;;;;;;39.25;32.49;97642.31;5138504;27;20322;-89
2023/07/29 10:39:26;;;;;;;;;;;;;;;39.38;31.82;97645.97;5138547;27;19974;-90
2023/07/29 10:41:56;;;;;;;;;;;;;;;39.57;31.95;97654.50;5137345;27;20324;-89
2023/07/29 10:44:43;;;;;;;;;;;;;;;39.69;31.49;97632.88;5138420;27;19924;-89
2023/07/29 10:47:13;;;;;;;;;;;;;;;39.95;31.57;97637.84;5138093;27;19915;-90
2023/07/29 10:49:46;;;;;;;;;;;;;;;40.15;30.01;97636.38;5138119;27;19958;-90
2023/07/29 10:52:16;;;;;;;;;;;;;;;40.10;31.57;97638.06;5133161;27;19922;-89
2023/07/29 10:54:43;;;;;;;;;;;;;;;39.93;30.45;97634.75;5117702;28;19920;-90
2023/07/29 10:57:13;;;;;;;;;;;;;;;39.80;31.59;97632.63;5118041;28;19920;-90
2023/07/29 10:59:39;;;;;;;;;;;;;;;39.83;31.20;97637.28;5117276;28;19938;-90
2023/07/29 11:02:14;;;;;;;;;;;;;;;39.75;30.42;97635.63;5117314;28;19955;-90
2023/07/29 11:04:47;;;;;;;;;;;;;;;39.63;29.72;97629.31;5117581;28;20005;-90
2023/07/29 11:07:13;;;;;;;;;;;;;;;39.47;29.41;97633.25;5117146;28;19984;-89
2023/07/29 11:09:51;;;;;;;;;;;;;;;39.46;29.40;97625.19;5117078;28;19931;-89
2023/07/29 11:12:35;;;;;;;;;;;;;;;39.42;29.60;97616.91;5117207;28;19985;-89
2023/07/29 11:15:03;;;;;;;;;;;;;;;38.92;28.16;97617.00;5116350;27;19916;-88
2023/07/29 11:17:32;;;;;;;;;;;;;;;38.66;29.96;97624.19;5117080;28;20288;-89
2023/07/29 11:20:00;;;;;;;;;;;;;;;38.72;30.02;97623.34;5116978;28;19923;-89
2023/07/29 11:22:26;;;;;;;;;;;;;;;38.90;31.78;97620.44;5116889;28;20364;-89
2023/07/29 11:24:52;;;;;;;;;;;;;;;39.04;31.27;97622.03;5116966;28;19956;-90
2023/07/29 11:27:17;;;;;;;;;;;;;;;39.12;32.34;97625.78;5116589;28;19916;-90
2023/07/29 11:29:43;;;;;;;;;;;;;;;39.27;31.43;97625.28;5115109;28;19938;-90
2023/07/29 11:32:10;;;;;;;;;;;;;;;39.29;31.96;97617.69;5117182;27;19918;-91
2023/07/29 11:34:36;;;;;;;;;;;;;;;39.53;31.63;97610.97;5115625;28;19923;-90
2023/07/29 11:37:02;;;;;;;;;;;;;;;39.73;32.44;97610.31;5116906;28;20022;-90
2023/07/29 11:39:28;;;;;;;;;;;;;;;39.92;29.63;97615.94;5116549;28;20388;-90
2023/07/29 11:41:54;;;;;;;;;;;;;;;39.88;30.16;97615.50;5116581;28;20014;-91
2023/07/29 11:44:20;;;;;;;;;;;;;;;39.83;30.74;97616.38;5116800;28;19915;-91
2023/07/29 11:46:48;;;;;;;;;;;;;;;39.76;30.52;97617.06;5116404;28;20380;-91
2023/07/29 11:49:14;;;;;;;;;;;;;;;39.74;30.07;97617.63;5115785;28;19931;-90
2023/07/29 11:51:41;;;;;;;;;;;;;;;39.66;28.32;97610.97;5116558;27;19937;-90
2023/07/29 11:54:08;;;;;;;;;;;;;;;39.72;28.75;97613.75;5136905;27;20300;-91
2023/07/29 11:56:35;;;;;;;;;;;;;;;39.90;29.15;97607.88;5136873;27;19968;-91
2023/07/29 11:59:02;;;;;;;;;;;;;;;40.26;28.12;97608.13;5135559;27;19920;-91
2023/07/29 12:01:28;;;;;;;;;;;;;;;40.19;25.76;97608.06;5136330;27;20318;-90
2023/07/29 12:03:55;;;;;;;;;;;;;;;40.15;28.02;97607.63;5136741;27;19946;-90
2023/07/29 12:06:23;;;;;;;;;;;;;;;40.35;28.09;97606.91;5120341;27;19915;-91
2023/07/29 12:08:49;;;;;;;;;;;;;;;40.52;28.11;97596.56;5116083;28;19923;-90
2023/07/29 12:11:15;;;;;;;;;;;;;;;40.60;26.97;97596.66;5115881;27;19920;-91
2023/07/29 12:13:42;;;;;;;;;;;;;;;40.60;28.29;97597.44;5116082;28;19922;-91
2023/07/29 12:16:08;;;;;;;;;;;;;;;40.55;26.04;97603.31;5115990;28;19916;-90
2023/07/29 12:18:34;;;;;;;;;;;;;;;40.07;27.80;97601.78;5115961;28;20304;-91
2023/07/29 12:21:00;;;;;;;;;;;;;;;40.10;28.72;97597.78;5115962;28;19916;-91
2023/07/29 12:23:26;;;;;;;;;;;;;;;40.16;29.27;97595.56;5116645;27;19962;-91
2023/07/29 12:25:57;;;;;;;;;;;;;;;40.43;27.86;97593.38;5115751;28;19959;-91
2023/07/29 12:28:23;;;;;;;;;;;;;;;40.42;26.96;97594.72;5114479;28;20303;-91
2023/07/29 12:30:55;;;;;;;;;;;;;;;39.55;27.92;97593.94;5115377;28;19922;-91
2023/07/29 12:33:31;;;;;;;;;;;;;;;39.83;27.33;97590.50;5115647;28;19960;-90
2023/07/29 12:35:57;;;;;;;;;;;;;;;40.23;27.28;97592.00;5114377;28;19915;-90
2023/07/29 12:38:25;;;;;;;;;;;;;;;40.52;27.33;97587.94;5115525;28;20002;-90
2023/07/29 12:40:51;;;;;;;;;;;;;;;40.61;27.03;97584.56;5115432;28;20039;-90
2023/07/29 12:43:17;;;;;;;;;;;;;;;40.84;27.32;97590.56;5117267;28;20398;-89
2023/07/29 12:45:43;;;;;;;;;;;;;;;40.97;27.12;97575.31;5115373;28;20395;-91